createdAt,value
2018-01-28T00:00:33.106Z,18.47
2018-01-28T00:03:00.666Z,24.20
2018-01-28T00:05:28.194Z,30.00
2018-01-28T00:07:55.783Z,20.50
2018-01-28T00:10:23.392Z,23.43
2018-01-28T00:12:50.917Z,19.63
2018-01-28T00:15:20.234Z,18.43
2018-01-28T00:17:47.766Z,18.50
2018-01-28T00:20:15.340Z,19.10
2018-01-28T00:22:43.638Z,18.03
2018-01-28T00:25:11.209Z,18.93
2018-01-28T00:27:39.729Z,18.93
2018-01-28T00:30:08.310Z,36.13
2018-01-28T00:32:35.832Z,30.03
2018-01-28T00:35:03.363Z,18.33
2018-01-28T00:37:30.923Z,18.90
2018-01-28T00:39:58.465Z,18.53
2018-01-28T00:42:26.785Z,17.57
2018-01-28T00:44:54.305Z,19.00
2018-01-28T00:47:22.622Z,17.33
2018-01-28T00:49:50.157Z,28.63
2018-01-28T00:52:17.706Z,19.10
2018-01-28T00:54:45.219Z,20.50
2018-01-28T00:57:12.777Z,17.27
2018-01-28T00:59:40.306Z,18.27
2018-01-28T01:02:07.839Z,15.87
2018-01-28T01:04:36.161Z,16.80
2018-01-28T01:07:03.687Z,18.83
2018-01-28T01:09:31.287Z,16.60
2018-01-28T01:11:58.789Z,16.47
2018-01-28T01:14:27.098Z,19.57
2018-01-28T01:16:54.619Z,15.90
2018-01-28T01:19:22.929Z,15.40
2018-01-28T01:21:50.455Z,16.10
2018-01-28T01:24:18.015Z,16.77
2018-01-28T01:26:46.303Z,15.30
2018-01-28T01:29:14.619Z,15.20
2018-01-28T01:31:42.138Z,15.07
2018-01-28T01:34:10.434Z,16.40
2018-01-28T01:36:37.994Z,15.27
2018-01-28T01:39:05.539Z,20.37
2018-01-28T01:41:33.090Z,17.13
2018-01-28T01:44:01.375Z,16.17
2018-01-28T01:46:28.934Z,22.10
2018-01-28T01:48:56.458Z,14.00
2018-01-28T01:51:24.011Z,16.70
2018-01-28T01:53:51.537Z,16.87
2018-01-28T01:56:19.094Z,15.67
2018-01-28T01:58:46.618Z,15.40
2018-01-28T02:01:14.908Z,21.10
2018-01-28T02:03:42.450Z,14.43
2018-01-28T02:06:11.707Z,14.90
2018-01-28T02:08:39.266Z,14.07
2018-01-28T02:11:07.715Z,25.63
2018-01-28T02:13:35.258Z,14.70
2018-01-28T02:16:02.790Z,13.73
2018-01-28T02:18:32.274Z,14.20
2018-01-28T02:20:59.839Z,13.93
2018-01-28T02:23:27.367Z,13.63
2018-01-28T02:25:54.927Z,13.70
2018-01-28T02:28:22.473Z,14.83
2018-01-28T02:30:50.029Z,14.43
2018-01-28T02:33:18.542Z,13.47
2018-01-28T02:35:46.080Z,12.27
2018-01-28T02:38:13.642Z,12.67
2018-01-28T02:40:41.224Z,19.47
2018-01-28T02:43:08.753Z,14.83
2018-01-28T02:45:36.308Z,13.47
2018-01-28T02:48:03.831Z,29.00
2018-01-28T02:50:31.391Z,30.03
2018-01-28T02:52:58.910Z,27.13
2018-01-28T02:55:27.428Z,14.17
2018-01-28T02:57:54.966Z,13.83
2018-01-28T03:00:22.506Z,12.93
2018-01-28T03:02:50.058Z,12.77
2018-01-28T03:05:17.579Z,12.70
2018-01-28T03:07:45.894Z,12.10
2018-01-28T03:10:14.392Z,11.60
2018-01-28T03:12:43.906Z,12.47
2018-01-28T03:15:11.434Z,13.40
2018-01-28T03:17:38.950Z,12.60
2018-01-28T03:20:06.872Z,13.10
2018-01-28T03:22:34.403Z,13.00
2018-01-28T03:25:01.962Z,13.20
2018-01-28T03:27:29.492Z,13.20
2018-01-28T03:29:58.778Z,12.57
2018-01-28T03:32:26.360Z,13.40
2018-01-28T03:34:54.818Z,13.67
2018-01-28T03:37:23.343Z,11.80
2018-01-28T03:39:51.815Z,11.80
2018-01-28T03:42:19.396Z,12.70
2018-01-28T03:44:47.873Z,12.10
2018-01-28T03:47:15.431Z,12.37
2018-01-28T03:49:42.954Z,21.57
2018-01-28T03:52:11.443Z,14.07
2018-01-28T03:54:38.991Z,34.50
2018-01-28T03:57:06.530Z,11.77
2018-01-28T03:59:34.115Z,12.40
2018-01-28T04:02:02.413Z,11.70
2018-01-28T04:04:29.963Z,13.10
2018-01-28T04:06:57.494Z,12.37
2018-01-28T04:09:25.804Z,13.07
2018-01-28T04:11:53.371Z,11.27
2018-01-28T04:14:20.902Z,11.00
2018-01-28T04:16:48.463Z,9.53
2018-01-28T04:19:15.979Z,16.90
2018-01-28T04:21:43.510Z,25.77
2018-01-28T04:24:12.998Z,8.80
2018-01-28T04:26:40.811Z,8.33
2018-01-28T04:29:08.367Z,9.17
2018-01-28T04:31:35.896Z,9.83
2018-01-28T04:34:03.446Z,12.60
2018-01-28T04:36:30.973Z,11.43
2018-01-28T04:38:58.552Z,11.73
2018-01-28T04:41:26.110Z,10.70
2018-01-28T04:43:53.639Z,11.60
2018-01-28T04:46:21.215Z,36.93
2018-01-28T04:48:49.725Z,10.00
2018-01-28T04:51:17.311Z,10.33
2018-01-28T04:53:44.878Z,10.10
2018-01-28T04:56:12.405Z,12.93
2018-01-28T04:58:39.962Z,10.67
2018-01-28T05:01:07.502Z,8.77
2018-01-28T05:03:35.030Z,9.57
2018-01-28T05:06:04.535Z,9.10
2018-01-28T05:08:32.058Z,8.97
2018-01-28T05:11:00.617Z,9.10
2018-01-28T05:13:29.137Z,18.83
2018-01-28T05:15:56.675Z,12.23
2018-01-28T05:18:25.207Z,24.07
2018-01-28T05:20:52.736Z,8.97
2018-01-28T05:23:20.280Z,8.77
2018-01-28T05:25:47.798Z,8.93
2018-01-28T05:28:16.119Z,13.60
2018-01-28T05:30:43.655Z,8.90
2018-01-28T05:33:11.179Z,7.83
2018-01-28T05:35:40.660Z,8.43
2018-01-28T05:38:08.951Z,8.30
2018-01-28T05:40:36.517Z,8.07
2018-01-28T05:43:04.045Z,11.93
2018-01-28T05:45:31.578Z,9.33
2018-01-28T05:47:59.134Z,9.70
2018-01-28T05:50:26.658Z,8.07
2018-01-28T05:52:54.212Z,8.10
2018-01-28T05:55:22.502Z,8.17
2018-01-28T05:57:50.059Z,8.60
2018-01-28T06:00:18.382Z,9.70
2018-01-28T06:02:46.850Z,8.30
2018-01-28T06:05:14.415Z,8.53
2018-01-28T06:07:41.970Z,7.40
2018-01-28T06:10:09.512Z,7.37
2018-01-28T06:12:37.063Z,8.17
2018-01-28T06:15:04.587Z,7.90
2018-01-28T06:17:32.911Z,7.40
2018-01-28T06:20:00.434Z,14.17
2018-01-28T06:22:28.762Z,13.23
2018-01-28T06:24:57.258Z,8.20
2018-01-28T06:27:24.774Z,8.27
2018-01-28T06:29:52.350Z,8.80
2018-01-28T06:32:19.889Z,17.33
2018-01-28T06:34:47.443Z,8.57
2018-01-28T06:37:14.975Z,12.53
2018-01-28T06:39:44.489Z,8.63
2018-01-28T06:42:12.778Z,8.30
2018-01-28T06:44:41.059Z,9.17
2018-01-28T06:47:09.374Z,8.33
2018-01-28T06:49:36.892Z,8.43
2018-01-28T06:52:05.179Z,9.07
2018-01-28T06:54:32.731Z,10.60
2018-01-28T06:57:00.254Z,9.40
2018-01-28T06:59:27.775Z,12.07
2018-01-28T07:01:55.349Z,30.80
2018-01-28T07:04:22.888Z,12.53
2018-01-28T07:06:50.447Z,17.23
2018-01-28T07:09:18.038Z,32.80
2018-01-28T07:11:46.526Z,9.03
2018-01-28T07:14:14.051Z,13.13
2018-01-28T07:16:41.594Z,10.27
2018-01-28T07:19:09.159Z,13.37
2018-01-28T07:21:36.696Z,10.80
2018-01-28T07:24:05.019Z,11.03
2018-01-28T07:26:32.542Z,9.57
2018-01-28T07:29:00.066Z,14.43
2018-01-28T07:31:27.668Z,13.60
2018-01-28T07:33:56.206Z,11.93
2018-01-28T07:36:23.763Z,11.60
2018-01-28T07:38:51.294Z,13.80
2018-01-28T07:41:18.831Z,20.07
2018-01-28T07:43:46.385Z,17.67
2018-01-28T07:46:14.000Z,14.30
2018-01-28T07:48:43.504Z,20.70
2018-01-28T07:51:11.030Z,15.67
2018-01-28T07:53:38.598Z,10.77
2018-01-28T07:56:06.140Z,14.83
2018-01-28T07:58:33.814Z,12.67
2018-01-28T08:01:01.375Z,12.40
2018-01-28T08:03:28.912Z,13.13
2018-01-28T08:05:57.433Z,10.80
2018-01-28T08:08:24.966Z,13.30
2018-01-28T08:10:57.019Z,15.43
2018-01-28T08:13:24.540Z,10.47
2018-01-28T08:15:52.867Z,9.27
2018-01-28T08:18:20.396Z,9.17
2018-01-28T08:20:48.908Z,9.40
2018-01-28T08:23:17.402Z,8.87
2018-01-28T08:25:44.937Z,8.27
2018-01-28T08:28:18.095Z,30.37
2018-01-28T08:30:46.604Z,12.40
2018-01-28T08:33:14.163Z,14.23
2018-01-28T08:35:41.702Z,16.20
2018-01-28T08:38:09.238Z,13.73
2018-01-28T08:40:37.563Z,10.10
2018-01-28T08:43:06.069Z,12.17
2018-01-28T08:45:33.626Z,11.07
2018-01-28T08:48:01.257Z,13.80
2018-01-28T08:50:28.771Z,22.67
2018-01-28T08:52:57.201Z,10.17
2018-01-28T08:55:24.738Z,9.73
2018-01-28T08:57:53.282Z,9.60
2018-01-28T09:00:20.814Z,19.40
2018-01-28T09:02:48.339Z,10.37
2018-01-28T09:05:15.895Z,9.13
2018-01-28T09:07:43.426Z,9.20
2018-01-28T09:10:10.988Z,9.83
2018-01-28T09:12:39.276Z,9.70
2018-01-28T09:15:06.811Z,9.77
2018-01-28T09:17:34.362Z,15.73
2018-01-28T09:20:02.643Z,9.80
2018-01-28T09:22:30.201Z,9.43
2018-01-28T09:24:58.696Z,8.20
2018-01-28T09:27:26.210Z,7.13
2018-01-28T09:29:53.750Z,7.90
2018-01-28T09:32:21.264Z,6.60
2018-01-28T09:34:48.810Z,17.70
2018-01-28T09:37:17.295Z,6.07
2018-01-28T09:39:44.863Z,6.23
2018-01-28T09:42:12.387Z,7.73
2018-01-28T09:44:40.905Z,6.70
2018-01-28T09:47:08.467Z,8.23
2018-01-28T09:49:36.758Z,7.43
2018-01-28T09:52:05.071Z,8.47
2018-01-28T09:54:32.631Z,6.13
2018-01-28T09:57:00.150Z,7.20
2018-01-28T09:59:28.466Z,6.80
2018-01-28T10:01:56.000Z,9.00
2018-01-28T10:04:23.522Z,33.00
2018-01-28T10:06:53.039Z,32.83
2018-01-28T10:09:21.517Z,6.87
2018-01-28T10:11:49.067Z,6.80
2018-01-28T10:14:16.594Z,7.90
2018-01-28T10:16:44.146Z,7.07
2018-01-28T10:19:11.676Z,8.40
2018-01-28T10:21:39.218Z,7.33
2018-01-28T10:24:06.787Z,10.13
2018-01-28T10:26:35.088Z,8.07
2018-01-28T10:29:02.640Z,6.30
2018-01-28T10:31:30.173Z,6.47
2018-01-28T10:33:57.718Z,6.70
2018-01-28T10:36:26.195Z,9.00
2018-01-28T10:38:53.723Z,10.87
2018-01-28T10:41:21.296Z,7.60
2018-01-28T10:43:48.831Z,9.93
2018-01-28T10:46:16.390Z,7.93
2018-01-28T10:48:43.912Z,8.60
2018-01-28T10:51:11.449Z,8.07
2018-01-28T10:53:39.780Z,7.40
2018-01-28T10:56:07.302Z,8.10
2018-01-28T10:58:35.623Z,8.53
2018-01-28T11:01:03.179Z,12.47
2018-01-28T11:03:30.732Z,8.27
2018-01-28T11:05:58.256Z,8.03
2018-01-28T11:08:26.538Z,7.87
2018-01-28T11:10:54.855Z,7.70
2018-01-28T11:13:22.394Z,7.77
2018-01-28T11:15:50.919Z,7.50
2018-01-28T11:18:18.451Z,8.17
2018-01-28T11:20:46.023Z,8.57
2018-01-28T11:23:13.559Z,17.83
2018-01-28T11:25:41.086Z,8.10
2018-01-28T11:28:08.649Z,6.40
2018-01-28T11:30:37.163Z,6.77
2018-01-28T11:33:04.719Z,11.30
2018-01-28T11:35:32.247Z,7.27
2018-01-28T11:38:00.560Z,6.30
2018-01-28T11:40:28.129Z,5.23
2018-01-28T11:42:55.654Z,7.13
2018-01-28T11:45:23.223Z,10.47
2018-01-28T11:47:50.771Z,14.50
2018-01-28T11:50:18.329Z,9.10
2018-01-28T11:52:46.829Z,6.27
2018-01-28T11:55:14.408Z,6.20
2018-01-28T11:57:41.940Z,4.87
2018-01-28T12:00:09.467Z,5.10
2018-01-28T12:02:37.784Z,5.63
2018-01-28T12:05:06.251Z,4.73
2018-01-28T12:07:33.802Z,5.03
2018-01-28T12:10:01.322Z,5.63
2018-01-28T12:12:28.842Z,5.40
2018-01-28T12:14:56.700Z,4.03
2018-01-28T12:17:24.230Z,4.37
2018-01-28T12:19:52.575Z,4.07
2018-01-28T12:22:20.875Z,5.33
2018-01-28T12:24:48.434Z,4.50
2018-01-28T12:27:15.966Z,5.20
2018-01-28T12:29:43.514Z,4.97
2018-01-28T12:32:12.001Z,5.03
2018-01-28T12:34:39.533Z,5.90
2018-01-28T12:37:07.088Z,4.77
2018-01-28T12:39:34.622Z,4.60
2018-01-28T12:42:02.951Z,4.90
2018-01-28T12:44:30.483Z,4.50
2018-01-28T12:46:58.008Z,4.33
2018-01-28T12:49:25.554Z,5.47
2018-01-28T12:51:53.079Z,5.90
2018-01-28T12:54:20.631Z,4.80
2018-01-28T12:56:48.162Z,4.80
2018-01-28T12:59:15.721Z,4.13
2018-01-28T13:01:43.245Z,4.30
2018-01-28T13:04:11.553Z,4.50
2018-01-28T13:06:39.106Z,4.00
2018-01-28T13:09:06.629Z,3.53
2018-01-28T13:11:34.186Z,3.93
2018-01-28T13:14:02.477Z,5.33
2018-01-28T13:16:30.033Z,3.57
2018-01-28T13:18:58.525Z,3.30
2018-01-28T13:21:26.863Z,7.60
2018-01-28T13:23:54.391Z,4.40
2018-01-28T13:26:23.041Z,3.50
2018-01-28T13:28:52.534Z,4.43
2018-01-28T13:31:21.028Z,3.63
2018-01-28T13:33:48.587Z,3.13
2018-01-28T13:36:16.108Z,3.43
2018-01-28T13:38:43.664Z,3.17
2018-01-28T13:41:11.231Z,3.73
2018-01-28T13:43:39.728Z,3.60
2018-01-28T13:46:07.308Z,3.90
2018-01-28T13:48:35.607Z,3.27
2018-01-28T13:51:03.171Z,4.70
2018-01-28T13:53:30.731Z,3.83
2018-01-28T13:55:58.272Z,3.10
2018-01-28T13:58:25.823Z,3.50
2018-01-28T14:00:53.380Z,3.70
2018-01-28T14:03:20.900Z,3.67
2018-01-28T14:05:49.401Z,3.37
2018-01-28T14:08:16.950Z,3.53
2018-01-28T14:10:44.491Z,3.13
2018-01-28T14:13:12.046Z,3.70
2018-01-28T14:15:39.575Z,3.60
2018-01-28T14:18:07.139Z,4.47
2018-01-28T14:20:34.688Z,4.10
2018-01-28T14:23:02.217Z,3.00
2018-01-28T14:25:30.544Z,2.93
2018-01-28T14:27:58.091Z,5.27
2018-01-28T14:30:25.659Z,3.10
2018-01-28T14:32:54.150Z,3.97
2018-01-28T14:35:21.706Z,3.37
2018-01-28T14:37:49.235Z,3.30
2018-01-28T14:40:17.575Z,3.00
2018-01-28T14:42:45.099Z,3.17
2018-01-28T14:45:12.633Z,3.33
2018-01-28T14:47:40.188Z,3.27
2018-01-28T14:50:08.481Z,3.50
2018-01-28T14:52:36.054Z,4.90
2018-01-28T14:55:03.598Z,3.60
2018-01-28T14:57:31.155Z,3.20
2018-01-28T14:59:58.683Z,3.13
2018-01-28T15:02:26.214Z,3.20
2018-01-28T15:04:53.763Z,3.80
2018-01-28T15:07:21.291Z,3.87
2018-01-28T15:09:48.847Z,3.60
2018-01-28T15:12:16.378Z,4.40
2018-01-28T15:14:44.901Z,3.30
2018-01-28T15:17:12.434Z,5.70
2018-01-28T15:19:40.007Z,3.30
2018-01-28T15:22:09.528Z,3.07
2018-01-28T15:24:37.070Z,3.80
2018-01-28T15:27:04.649Z,3.47
2018-01-28T15:29:32.204Z,4.20
2018-01-28T15:31:59.775Z,4.50
2018-01-28T15:34:29.294Z,4.37
2018-01-28T15:36:56.839Z,4.10
2018-01-28T15:39:24.399Z,3.93
2018-01-28T15:41:51.961Z,4.40
2018-01-28T15:44:19.519Z,4.17
2018-01-28T15:46:47.085Z,4.57
2018-01-28T15:49:14.622Z,5.63
2018-01-28T15:51:43.160Z,5.00
2018-01-28T15:54:11.480Z,5.40
2018-01-28T15:56:39.109Z,4.40
2018-01-28T15:59:06.638Z,5.83
2018-01-28T16:01:34.212Z,5.27
2018-01-28T16:04:01.749Z,5.07
2018-01-28T16:06:29.307Z,7.80
2018-01-28T16:08:56.851Z,4.50
2018-01-28T16:11:24.397Z,3.83
2018-01-28T16:13:51.949Z,3.23
2018-01-28T16:16:19.484Z,3.50
2018-01-28T16:18:47.819Z,4.43
2018-01-28T16:21:15.347Z,3.97
2018-01-28T16:23:42.887Z,3.20
2018-01-28T16:26:10.440Z,4.00
2018-01-28T16:28:38.730Z,5.77
2018-01-28T16:31:06.374Z,7.07
2018-01-28T16:33:34.678Z,4.23
2018-01-28T16:36:02.252Z,4.40
2018-01-28T16:38:29.793Z,9.37
2018-01-28T16:40:57.376Z,13.30
2018-01-28T16:43:24.904Z,18.33
2018-01-28T16:45:52.468Z,14.37
2018-01-28T16:48:20.039Z,18.67
2018-01-28T16:50:47.622Z,9.70
2018-01-28T16:53:22.866Z,6.60
2018-01-28T16:56:00.676Z,6.73
2018-01-28T16:58:29.099Z,5.20
2018-01-28T17:00:56.643Z,6.97
2018-01-28T17:03:35.194Z,5.87
2018-01-28T17:06:02.778Z,8.88
2018-01-28T17:08:30.366Z,5.30
2018-01-28T17:10:57.907Z,5.53
2018-01-28T17:13:25.443Z,5.80
2018-01-28T17:15:54.062Z,5.77
2018-01-28T17:18:21.583Z,8.20
2018-01-28T17:20:49.162Z,7.17
2018-01-28T17:23:16.892Z,11.30
2018-01-28T17:25:45.479Z,13.13
2018-01-28T17:28:13.026Z,8.57
2018-01-28T17:30:40.555Z,7.70
2018-01-28T17:33:08.121Z,9.53
2018-01-28T17:35:42.160Z,13.90
2018-01-28T17:38:09.737Z,7.67
2018-01-28T17:40:37.287Z,6.50
2018-01-28T17:43:04.833Z,13.80
2018-01-28T17:45:32.390Z,21.70
2018-01-28T17:47:59.934Z,19.23
2018-01-28T17:50:29.222Z,8.53
2018-01-28T17:52:56.811Z,7.87
2018-01-28T17:55:24.335Z,7.47
2018-01-28T17:57:54.676Z,8.10
2018-01-28T18:00:22.317Z,21.00
2018-01-28T18:02:49.858Z,11.57
2018-01-28T18:05:17.442Z,12.40
2018-01-28T18:07:44.975Z,14.13
2018-01-28T18:10:12.546Z,11.47
2018-01-28T18:12:40.074Z,11.30
2018-01-28T18:15:07.591Z,7.90
2018-01-28T18:17:35.743Z,12.13
2018-01-28T18:20:04.045Z,9.87
2018-01-28T18:22:31.639Z,7.33
2018-01-28T18:24:59.184Z,9.43
2018-01-28T18:27:26.755Z,11.70
2018-01-28T18:29:54.283Z,9.67
2018-01-28T18:32:21.810Z,10.70
2018-01-28T18:34:49.383Z,10.70
2018-01-28T18:37:17.708Z,10.90
2018-01-28T18:39:45.249Z,10.13
2018-01-28T18:42:12.811Z,8.93
2018-01-28T18:44:40.335Z,8.83
2018-01-28T18:47:07.875Z,9.40
2018-01-28T18:49:35.450Z,31.90
2018-01-28T18:52:03.748Z,11.53
2018-01-28T18:54:31.305Z,10.40
2018-01-28T18:56:58.862Z,8.40
2018-01-28T18:59:26.795Z,7.10
2018-01-28T19:01:54.362Z,12.50
2018-01-28T19:04:22.684Z,8.20
2018-01-28T19:06:50.208Z,7.07
2018-01-28T19:09:17.814Z,6.37
2018-01-28T19:11:45.393Z,10.47
2018-01-28T19:14:14.010Z,10.83
2018-01-28T19:16:42.326Z,11.07
2018-01-28T19:19:09.845Z,12.40
2018-01-28T19:21:38.147Z,9.40
2018-01-28T19:24:05.751Z,11.30
2018-01-28T19:26:33.371Z,14.57
2018-01-28T19:29:00.944Z,12.60
2018-01-28T19:31:28.473Z,12.73
2018-01-28T19:33:56.006Z,12.70
2018-01-28T19:36:23.554Z,27.47
2018-01-28T19:38:51.087Z,11.00
2018-01-28T19:41:19.626Z,5.00
2018-01-28T19:43:47.931Z,14.20
2018-01-28T19:46:15.458Z,14.93
2018-01-28T19:48:43.021Z,7.60
2018-01-28T19:51:11.338Z,10.30
2018-01-28T19:53:38.908Z,4.90
2018-01-28T19:56:06.426Z,4.90
2018-01-28T19:58:34.950Z,5.50
2018-01-28T20:01:02.466Z,5.80
2018-01-28T20:03:29.996Z,4.20
2018-01-28T20:05:57.551Z,4.40
2018-01-28T20:08:25.079Z,4.90
2018-01-28T20:10:52.638Z,4.83
2018-01-28T20:13:20.159Z,13.07
2018-01-28T20:15:48.449Z,13.13
2018-01-28T20:18:17.972Z,21.70
2018-01-28T20:20:45.529Z,23.17
2018-01-28T20:23:13.098Z,13.70
2018-01-28T20:25:40.628Z,8.37
2018-01-28T20:28:10.151Z,6.40
2018-01-28T20:30:37.692Z,6.60
2018-01-28T20:33:05.246Z,5.60
2018-01-28T20:35:32.782Z,5.83
2018-01-28T20:38:00.330Z,7.27
2018-01-28T20:40:27.850Z,7.60
2018-01-28T20:42:55.371Z,9.57
2018-01-28T20:45:23.699Z,18.10
2018-01-28T20:47:51.226Z,11.70
2018-01-28T20:50:18.799Z,5.50
2018-01-28T20:52:46.337Z,5.20
2018-01-28T20:55:13.866Z,10.70
2018-01-28T20:57:42.351Z,6.27
2018-01-28T21:00:09.921Z,6.97
2018-01-28T21:02:37.470Z,11.60
2018-01-28T21:05:05.761Z,13.50
2018-01-28T21:07:33.451Z,12.30
2018-01-28T21:10:00.982Z,8.33
2018-01-28T21:12:28.530Z,8.27
2018-01-28T21:14:56.126Z,9.73
2018-01-28T21:17:23.666Z,7.30
2018-01-28T21:19:51.231Z,6.03
2018-01-28T21:22:18.760Z,8.70
2018-01-28T21:24:47.096Z,11.10
2018-01-28T21:27:14.610Z,6.13
2018-01-28T21:29:42.922Z,7.97
2018-01-28T21:32:10.650Z,5.30
2018-01-28T21:34:38.163Z,6.53
2018-01-28T21:37:05.719Z,11.97
2018-01-28T21:39:33.246Z,7.37
2018-01-28T21:42:00.796Z,6.57
2018-01-28T21:44:28.323Z,6.10
2018-01-28T21:46:55.954Z,5.70
2018-01-28T21:49:23.467Z,5.23
2018-01-28T21:51:50.983Z,5.60
2018-01-28T21:54:18.552Z,5.67
2018-01-28T21:56:46.079Z,5.90
2018-01-28T21:59:13.626Z,5.00
2018-01-28T22:01:41.164Z,9.23
2018-01-28T22:04:08.739Z,9.73
2018-01-28T22:06:36.335Z,8.70
2018-01-28T22:09:03.894Z,13.60
2018-01-28T22:11:31.463Z,10.50
2018-01-28T22:13:58.982Z,9.03
2018-01-28T22:16:26.538Z,5.80
2018-01-28T22:18:54.067Z,3.90
2018-01-28T22:21:21.663Z,3.00
2018-01-28T22:23:51.512Z,6.30
2018-01-28T22:26:20.776Z,3.33
2018-01-28T22:28:48.335Z,3.83
2018-01-28T22:31:16.062Z,3.77
2018-01-28T22:33:44.550Z,6.73
2018-01-28T22:36:12.070Z,6.00
2018-01-28T22:38:40.360Z,4.30
2018-01-28T22:41:07.912Z,4.10
2018-01-28T22:43:36.254Z,3.37
2018-01-28T22:46:03.803Z,5.53
2018-01-28T22:48:31.359Z,9.33
2018-01-28T22:50:58.922Z,3.40
2018-01-28T22:53:26.446Z,6.20
2018-01-28T22:55:54.003Z,4.73
2018-01-28T22:58:22.287Z,3.37
2018-01-28T23:00:49.815Z,2.73
2018-01-28T23:03:17.431Z,2.90
2018-01-28T23:05:44.960Z,2.50
2018-01-28T23:08:12.507Z,3.10
2018-01-28T23:10:40.851Z,2.97
2018-01-28T23:13:08.398Z,3.60
2018-01-28T23:15:36.146Z,3.00
2018-01-28T23:18:03.662Z,6.27
2018-01-28T23:20:32.886Z,10.17
2018-01-28T23:23:00.411Z,3.40
2018-01-28T23:25:27.943Z,2.67
2018-01-28T23:27:55.565Z,2.20
2018-01-28T23:30:23.116Z,2.27
2018-01-28T23:32:50.638Z,2.60
2018-01-28T23:35:18.427Z,2.20
2018-01-28T23:37:46.719Z,2.50
2018-01-28T23:40:14.276Z,2.60
2018-01-28T23:42:41.798Z,3.00
2018-01-28T23:45:09.334Z,4.97
2018-01-28T23:47:36.901Z,3.13
2018-01-28T23:50:04.439Z,3.30
2018-01-28T23:52:31.979Z,2.97
2018-01-28T23:54:59.502Z,2.70
2018-01-28T23:57:27.072Z,19.10
2018-01-28T23:59:55.394Z,2.20
